createdAt,value
2018-04-07T00:00:09.119Z,7.48
2018-04-07T00:02:36.647Z,7.51
2018-04-07T00:05:04.181Z,7.51
2018-04-07T00:07:31.694Z,7.49
2018-04-07T00:09:59.209Z,7.48
2018-04-07T00:12:26.721Z,7.50
2018-04-07T00:14:54.238Z,7.49
2018-04-07T00:17:21.749Z,7.52
2018-04-07T00:19:49.377Z,7.46
2018-04-07T00:22:16.913Z,7.45
2018-04-07T00:24:44.443Z,7.46
2018-04-07T00:27:11.957Z,7.45
2018-04-07T00:29:39.486Z,7.48
2018-04-07T00:32:07.087Z,7.43
2018-04-07T00:34:34.601Z,7.42
2018-04-07T00:37:02.123Z,7.41
2018-04-07T00:39:29.637Z,7.40
2018-04-07T00:41:57.151Z,7.40
2018-04-07T00:44:24.682Z,7.34
2018-04-07T00:46:52.204Z,7.32
2018-04-07T00:49:19.834Z,7.28
2018-04-07T00:51:47.348Z,7.22
2018-04-07T00:54:14.857Z,7.22
2018-04-07T00:56:42.382Z,7.19
2018-04-07T00:59:09.916Z,7.19
2018-04-07T01:01:37.456Z,7.13
2018-04-07T01:04:04.981Z,7.09
2018-04-07T01:06:32.501Z,7.09
2018-04-07T01:09:00.083Z,7.08
2018-04-07T01:11:27.643Z,7.02
2018-04-07T01:13:55.160Z,7.03
2018-04-07T01:16:22.758Z,7.04
2018-04-07T01:18:50.286Z,7.00
2018-04-07T01:21:17.880Z,7.06
2018-04-07T01:23:45.405Z,7.08
2018-04-07T01:26:12.918Z,7.07
2018-04-07T01:28:40.424Z,7.05
2018-04-07T01:31:07.940Z,7.09
2018-04-07T01:33:35.449Z,7.15
2018-04-07T01:36:02.958Z,7.13
2018-04-07T01:38:30.480Z,7.17
2018-04-07T01:40:58.009Z,7.23
2018-04-07T01:43:25.526Z,7.19
2018-04-07T01:45:53.037Z,7.23
2018-04-07T01:48:20.560Z,7.22
2018-04-07T01:50:48.089Z,7.19
2018-04-07T01:53:15.629Z,7.17
2018-04-07T01:55:43.136Z,7.13
2018-04-07T01:58:10.663Z,7.13
2018-04-07T02:00:38.193Z,7.08
2018-04-07T02:03:05.706Z,7.05
2018-04-07T02:05:33.214Z,7.02
2018-04-07T02:08:00.734Z,7.01
2018-04-07T02:10:28.256Z,6.95
2018-04-07T02:12:55.790Z,6.95
2018-04-07T02:15:23.309Z,6.93
2018-04-07T02:17:50.840Z,6.93
2018-04-07T02:20:18.358Z,6.89
2018-04-07T02:22:45.961Z,6.83
2018-04-07T02:25:13.480Z,6.84
2018-04-07T02:27:41.080Z,6.82
2018-04-07T02:30:08.593Z,6.80
2018-04-07T02:32:36.128Z,6.73
2018-04-07T02:35:03.641Z,6.73
2018-04-07T02:37:31.196Z,6.70
2018-04-07T02:39:58.703Z,6.68
2018-04-07T02:42:26.261Z,6.69
2018-04-07T02:44:53.781Z,6.66
2018-04-07T02:47:21.298Z,6.74
2018-04-07T02:49:48.916Z,6.68
2018-04-07T02:52:16.440Z,6.69
2018-04-07T02:54:43.957Z,6.68
2018-04-07T02:57:11.489Z,6.67
2018-04-07T02:59:39.017Z,6.69
2018-04-07T03:02:06.567Z,6.68
2018-04-07T03:04:34.087Z,6.67
2018-04-07T03:07:01.616Z,6.64
2018-04-07T03:09:29.190Z,6.65
2018-04-07T03:11:56.710Z,6.67
2018-04-07T03:14:24.234Z,6.65
2018-04-07T03:16:51.751Z,6.66
2018-04-07T03:19:19.267Z,6.65
2018-04-07T03:21:46.814Z,6.62
2018-04-07T03:24:14.342Z,6.61
2018-04-07T03:26:41.863Z,6.61
2018-04-07T03:29:09.465Z,6.65
2018-04-07T03:31:36.995Z,6.64
2018-04-07T03:34:04.519Z,6.62
2018-04-07T03:36:32.132Z,6.59
2018-04-07T03:38:59.662Z,6.59
2018-04-07T03:41:27.186Z,6.57
2018-04-07T03:43:54.823Z,6.56
2018-04-07T03:46:22.369Z,6.58
2018-04-07T03:48:49.906Z,6.58
2018-04-07T03:51:17.424Z,6.58
2018-04-07T03:53:45.048Z,6.59
2018-04-07T03:56:12.628Z,6.61
2018-04-07T03:58:40.141Z,6.60
2018-04-07T04:01:07.728Z,6.58
2018-04-07T04:03:35.258Z,6.62
2018-04-07T04:06:02.831Z,6.63
2018-04-07T04:08:30.348Z,6.66
2018-04-07T04:10:57.865Z,6.67
2018-04-07T04:13:25.384Z,6.68
2018-04-07T04:15:52.921Z,6.68
2018-04-07T04:18:20.435Z,6.66
2018-04-07T04:20:47.945Z,6.65
2018-04-07T04:23:15.577Z,6.65
2018-04-07T04:25:43.141Z,6.65
2018-04-07T04:28:10.657Z,6.71
2018-04-07T04:30:38.192Z,6.68
2018-04-07T04:33:05.705Z,6.71
2018-04-07T04:35:33.265Z,6.75
2018-04-07T04:38:00.773Z,6.79
2018-04-07T04:40:28.281Z,6.76
2018-04-07T04:42:55.792Z,6.79
2018-04-07T04:45:23.318Z,6.77
2018-04-07T04:47:50.845Z,6.73
2018-04-07T04:50:18.366Z,6.77
2018-04-07T04:52:45.877Z,6.76
2018-04-07T04:55:13.398Z,6.75
2018-04-07T04:57:40.929Z,6.79
2018-04-07T05:00:08.441Z,6.82
2018-04-07T05:02:35.996Z,6.84
2018-04-07T05:05:03.509Z,6.85
2018-04-07T05:07:31.030Z,6.89
2018-04-07T05:09:58.557Z,6.95
2018-04-07T05:12:26.082Z,6.96
2018-04-07T05:14:53.597Z,7.01
2018-04-07T05:17:21.149Z,7.06
2018-04-07T05:19:48.710Z,7.14
2018-04-07T05:22:16.286Z,7.15
2018-04-07T05:24:43.813Z,7.26
2018-04-07T05:27:11.356Z,7.38
2018-04-07T05:29:38.968Z,7.56
2018-04-07T05:32:06.488Z,7.57
2018-04-07T05:34:34.411Z,7.60
2018-04-07T05:37:01.941Z,7.70
2018-04-07T05:39:29.461Z,7.80
2018-04-07T05:41:56.973Z,7.82
2018-04-07T05:44:24.522Z,7.90
2018-04-07T05:46:52.111Z,7.95
2018-04-07T05:49:19.634Z,8.08
2018-04-07T05:51:47.158Z,8.19
2018-04-07T05:54:14.669Z,8.56
2018-04-07T05:56:42.213Z,8.41
2018-04-07T05:59:09.809Z,8.48
2018-04-07T06:01:37.336Z,8.70
2018-04-07T06:04:04.871Z,8.91
2018-04-07T06:06:32.393Z,8.93
2018-04-07T06:08:59.914Z,9.09
2018-04-07T06:11:27.445Z,9.56
2018-04-07T06:13:55.001Z,9.39
2018-04-07T06:16:22.526Z,9.45
2018-04-07T06:18:50.061Z,9.57
2018-04-07T06:21:17.579Z,9.75
2018-04-07T06:23:45.196Z,9.90
2018-04-07T06:26:12.732Z,10.39
2018-04-07T06:28:40.286Z,10.48
2018-04-07T06:31:07.817Z,10.78
2018-04-07T06:33:35.441Z,10.33
2018-04-07T06:36:02.965Z,10.21
2018-04-07T06:38:30.534Z,9.92
2018-04-07T06:40:58.055Z,10.06
2018-04-07T06:43:25.601Z,10.11
2018-04-07T06:45:53.140Z,10.00
2018-04-07T06:48:20.664Z,9.95
2018-04-07T06:50:48.227Z,10.18
2018-04-07T06:53:15.827Z,10.29
2018-04-07T06:55:43.374Z,10.37
2018-04-07T06:58:10.906Z,10.82
2018-04-07T07:00:38.441Z,11.53
2018-04-07T07:03:05.969Z,11.55
2018-04-07T07:05:33.481Z,11.66
2018-04-07T07:08:00.997Z,11.78
2018-04-07T07:10:28.518Z,11.73
2018-04-07T07:12:56.093Z,12.18
2018-04-07T07:15:23.757Z,12.49
2018-04-07T07:17:51.321Z,13.15
2018-04-07T07:20:18.876Z,12.50
2018-04-07T07:22:46.402Z,12.74
2018-04-07T07:25:13.926Z,12.71
2018-04-07T07:27:41.462Z,13.29
2018-04-07T07:30:08.981Z,13.28
2018-04-07T07:32:36.504Z,13.49
2018-04-07T07:35:04.033Z,13.89
2018-04-07T07:37:31.803Z,13.88
2018-04-07T07:39:59.352Z,14.11
2018-04-07T07:42:26.873Z,14.23
2018-04-07T07:44:54.405Z,14.21
2018-04-07T07:47:21.950Z,14.10
2018-04-07T07:49:49.596Z,15.43
2018-04-07T07:52:17.156Z,15.12
2018-04-07T07:54:44.715Z,14.39
2018-04-07T07:57:12.247Z,14.55
2018-04-07T07:59:39.803Z,14.33
2018-04-07T08:02:07.325Z,14.98
2018-04-07T08:04:34.857Z,15.58
2018-04-07T08:07:02.397Z,15.49
2018-04-07T08:09:29.926Z,15.65
2018-04-07T08:11:57.463Z,15.32
2018-04-07T08:14:25.026Z,15.26
2018-04-07T08:16:52.608Z,15.50
2018-04-07T08:19:20.142Z,14.91
2018-04-07T08:21:47.676Z,14.92
2018-04-07T08:24:15.199Z,16.06
2018-04-07T08:26:42.719Z,15.66
2018-04-07T08:29:10.252Z,16.21
2018-04-07T08:31:37.776Z,16.08
2018-04-07T08:34:05.297Z,16.39
2018-04-07T08:36:32.826Z,16.63
2018-04-07T08:39:00.349Z,15.96
2018-04-07T08:41:27.871Z,16.88
2018-04-07T08:43:55.389Z,16.26
2018-04-07T08:46:22.917Z,16.23
2018-04-07T08:48:50.454Z,15.83
2018-04-07T08:51:17.988Z,15.63
2018-04-07T08:53:45.511Z,16.91
2018-04-07T08:56:13.067Z,16.43
2018-04-07T08:58:40.665Z,16.07
2018-04-07T09:01:08.184Z,16.90
2018-04-07T09:03:35.704Z,17.66
2018-04-07T09:06:03.344Z,17.70
2018-04-07T09:08:30.901Z,17.91
2018-04-07T09:10:58.461Z,17.77
2018-04-07T09:13:25.986Z,17.75
2018-04-07T09:15:53.533Z,17.66
2018-04-07T09:18:21.062Z,18.17
2018-04-07T09:20:48.584Z,18.37
2018-04-07T09:23:16.109Z,19.17
2018-04-07T09:25:43.669Z,18.92
2018-04-07T09:28:11.218Z,18.41
2018-04-07T09:30:38.844Z,19.39
2018-04-07T09:33:06.394Z,20.77
2018-04-07T09:35:33.927Z,19.72
2018-04-07T09:38:01.459Z,21.58
2018-04-07T09:40:28.999Z,22.76
2018-04-07T09:42:56.522Z,23.17
2018-04-07T09:45:24.096Z,23.07
2018-04-07T09:47:51.622Z,22.13
2018-04-07T09:50:19.154Z,24.63
2018-04-07T09:52:46.675Z,21.83
2018-04-07T09:55:14.195Z,23.63
2018-04-07T09:57:41.750Z,23.13
2018-04-07T10:00:09.282Z,23.28
2018-04-07T10:02:36.806Z,23.25
2018-04-07T10:05:04.338Z,22.44
2018-04-07T10:07:31.883Z,22.77
2018-04-07T10:09:59.410Z,22.49
2018-04-07T10:12:26.951Z,22.48
2018-04-07T10:14:54.474Z,22.56
2018-04-07T10:17:21.997Z,24.65
2018-04-07T10:19:49.524Z,22.61
2018-04-07T10:22:17.053Z,23.10
2018-04-07T10:24:44.581Z,21.92
2018-04-07T10:27:12.104Z,21.98
2018-04-07T10:29:39.626Z,23.23
2018-04-07T10:32:07.152Z,23.73
2018-04-07T10:34:34.783Z,23.34
2018-04-07T10:37:03.137Z,23.99
2018-04-07T10:39:30.657Z,22.83
2018-04-07T10:41:58.270Z,22.62
2018-04-07T10:44:25.790Z,22.05
2018-04-07T10:46:53.330Z,21.86
2018-04-07T10:49:20.846Z,20.25
2018-04-07T10:51:48.377Z,20.80
2018-04-07T10:54:15.977Z,19.21
2018-04-07T10:56:43.494Z,19.63
2018-04-07T10:59:11.031Z,19.06
2018-04-07T11:01:38.554Z,18.91
2018-04-07T11:04:06.085Z,18.70
2018-04-07T11:06:33.611Z,18.78
2018-04-07T11:09:01.237Z,18.26
2018-04-07T11:11:28.828Z,18.28
2018-04-07T11:13:56.363Z,18.06
2018-04-07T11:16:23.889Z,18.33
2018-04-07T11:18:51.402Z,18.25
2018-04-07T11:21:18.935Z,18.31
2018-04-07T11:23:46.486Z,18.38
2018-04-07T11:26:14.004Z,17.59
2018-04-07T11:28:41.588Z,18.02
2018-04-07T11:31:09.102Z,17.84
2018-04-07T11:33:36.617Z,17.92
2018-04-07T11:36:04.142Z,18.29
2018-04-07T11:38:31.674Z,18.20
2018-04-07T11:40:59.206Z,18.31
2018-04-07T11:43:26.739Z,18.58
2018-04-07T11:45:54.281Z,18.13
2018-04-07T11:48:21.818Z,17.90
2018-04-07T11:50:49.346Z,17.79
2018-04-07T11:53:16.893Z,18.11
2018-04-07T11:55:44.400Z,17.94
2018-04-07T11:58:11.913Z,18.10
2018-04-07T12:00:39.442Z,18.23
2018-04-07T12:03:07.021Z,18.17
2018-04-07T12:05:34.536Z,18.40
2018-04-07T12:08:02.150Z,18.46
2018-04-07T12:10:29.671Z,18.35
2018-04-07T12:12:57.207Z,18.67
2018-04-07T12:15:24.739Z,18.57
2018-04-07T12:17:52.310Z,18.74
2018-04-07T12:20:19.848Z,18.73
2018-04-07T12:22:47.361Z,18.76
2018-04-07T12:25:14.876Z,18.72
2018-04-07T12:27:42.406Z,18.70
2018-04-07T12:30:09.929Z,18.68
2018-04-07T12:32:37.454Z,18.86
2018-04-07T12:35:04.986Z,18.84
2018-04-07T12:37:32.586Z,18.94
2018-04-07T12:40:00.112Z,18.95
2018-04-07T12:42:27.656Z,18.90
2018-04-07T12:44:55.245Z,18.86
2018-04-07T12:47:22.753Z,19.20
2018-04-07T12:49:50.378Z,19.32
2018-04-07T12:52:17.906Z,19.35
2018-04-07T12:54:45.421Z,19.25
2018-04-07T12:57:12.936Z,19.42
2018-04-07T12:59:40.455Z,19.19
2018-04-07T13:02:07.976Z,19.24
2018-04-07T13:04:35.498Z,19.33
2018-04-07T13:07:03.121Z,19.55
2018-04-07T13:09:30.608Z,19.56
2018-04-07T13:11:58.120Z,19.45
2018-04-07T13:14:25.633Z,19.59
2018-04-07T13:16:53.159Z,19.79
2018-04-07T13:19:20.684Z,19.89
2018-04-07T13:21:48.214Z,19.87
2018-04-07T13:24:15.757Z,19.81
2018-04-07T13:26:43.293Z,19.91
2018-04-07T13:29:10.809Z,20.04
2018-04-07T13:31:38.313Z,20.08
2018-04-07T13:34:05.872Z,20.00
2018-04-07T13:36:33.399Z,20.00
2018-04-07T13:39:00.917Z,20.02
2018-04-07T13:41:28.433Z,19.98
2018-04-07T13:43:56.084Z,20.01
2018-04-07T13:46:23.597Z,20.07
2018-04-07T13:48:51.158Z,19.94
2018-04-07T13:51:18.686Z,20.10
2018-04-07T13:53:46.206Z,20.06
2018-04-07T13:56:13.813Z,20.23
2018-04-07T13:58:41.446Z,20.27
2018-04-07T14:01:08.974Z,20.11
2018-04-07T14:03:36.517Z,20.14
2018-04-07T14:06:04.038Z,20.27
2018-04-07T14:08:31.558Z,20.33
2018-04-07T14:10:59.075Z,20.43
2018-04-07T14:13:26.594Z,20.48
2018-04-07T14:15:54.267Z,20.51
2018-04-07T14:18:21.789Z,20.62
2018-04-07T14:20:49.383Z,20.44
2018-04-07T14:23:16.896Z,20.39
2018-04-07T14:25:44.422Z,20.53
2018-04-07T14:28:11.945Z,20.63
2018-04-07T14:30:39.487Z,20.72
2018-04-07T14:33:07.006Z,20.67
2018-04-07T14:35:34.522Z,20.61
2018-04-07T14:38:02.033Z,20.69
2018-04-07T14:40:29.556Z,20.72
2018-04-07T14:42:57.137Z,20.72
2018-04-07T14:45:24.660Z,20.78
2018-04-07T14:47:52.234Z,20.86
2018-04-07T14:50:19.789Z,20.92
2018-04-07T14:52:47.301Z,21.01
2018-04-07T14:55:14.846Z,21.01
2018-04-07T14:57:42.372Z,20.96
2018-04-07T15:00:09.936Z,20.90
2018-04-07T15:02:37.457Z,20.90
2018-04-07T15:05:04.992Z,20.90
2018-04-07T15:07:32.505Z,20.98
2018-04-07T15:10:00.065Z,21.03
2018-04-07T15:12:27.603Z,21.17
2018-04-07T15:14:55.125Z,21.15
2018-04-07T15:17:22.652Z,21.22
2018-04-07T15:19:50.270Z,21.04
2018-04-07T15:22:17.779Z,21.09
2018-04-07T15:24:45.295Z,20.93
2018-04-07T15:27:12.809Z,21.07
2018-04-07T15:29:40.324Z,21.07
2018-04-07T15:32:07.856Z,21.03
2018-04-07T15:34:35.389Z,20.98
2018-04-07T15:37:02.903Z,21.07
2018-04-07T15:39:30.437Z,21.12
2018-04-07T15:41:57.961Z,21.04
2018-04-07T15:44:25.514Z,21.05
2018-04-07T15:46:53.030Z,21.07
2018-04-07T15:49:20.616Z,21.13
2018-04-07T15:51:48.140Z,21.06
2018-04-07T15:54:15.662Z,21.07
2018-04-07T15:56:43.307Z,21.03
2018-04-07T15:59:10.824Z,20.97
2018-04-07T16:01:38.423Z,21.03
2018-04-07T16:04:05.947Z,21.11
2018-04-07T16:06:33.504Z,21.04
2018-04-07T16:09:01.025Z,20.92
2018-04-07T16:11:28.557Z,21.04
2018-04-07T16:13:56.117Z,21.02
2018-04-07T16:16:23.642Z,20.99
2018-04-07T16:18:51.161Z,20.88
2018-04-07T16:21:18.798Z,20.95
2018-04-07T16:23:46.322Z,20.97
2018-04-07T16:26:13.843Z,20.86
2018-04-07T16:28:41.473Z,20.82
2018-04-07T16:31:09.011Z,20.87
2018-04-07T16:33:36.530Z,20.86
2018-04-07T16:36:04.040Z,20.89
2018-04-07T16:38:31.604Z,20.83
2018-04-07T16:40:59.178Z,20.80
2018-04-07T16:43:26.701Z,20.76
2018-04-07T16:45:54.222Z,20.74
2018-04-07T16:48:21.757Z,20.70
2018-04-07T16:50:49.276Z,20.66
2018-04-07T16:53:16.809Z,20.71
2018-04-07T16:55:44.343Z,20.66
2018-04-07T16:58:11.890Z,20.64
2018-04-07T17:00:39.452Z,20.62
2018-04-07T17:03:06.977Z,20.50
2018-04-07T17:05:34.488Z,20.44
2018-04-07T17:08:02.003Z,20.46
2018-04-07T17:10:29.543Z,20.46
2018-04-07T17:12:57.070Z,20.28
2018-04-07T17:15:24.660Z,20.35
2018-04-07T17:17:52.186Z,20.25
2018-04-07T17:20:19.809Z,20.21
2018-04-07T17:22:47.324Z,20.17
2018-04-07T17:25:14.886Z,20.05
2018-04-07T17:27:42.407Z,20.12
2018-04-07T17:30:09.969Z,20.07
2018-04-07T17:32:37.523Z,20.06
2018-04-07T17:35:05.050Z,19.97
2018-04-07T17:37:32.568Z,19.86
2018-04-07T17:40:00.086Z,19.84
2018-04-07T17:42:27.606Z,19.77
2018-04-07T17:44:55.127Z,19.68
2018-04-07T17:47:22.645Z,19.63
2018-04-07T17:49:50.357Z,19.53
2018-04-07T17:52:17.903Z,19.52
2018-04-07T17:54:45.429Z,19.41
2018-04-07T17:57:13.178Z,19.38
2018-04-07T17:59:40.721Z,19.32
2018-04-07T18:02:08.246Z,19.27
2018-04-07T18:04:35.772Z,19.20
2018-04-07T18:07:03.404Z,19.15
2018-04-07T18:09:31.027Z,19.12
2018-04-07T18:11:58.589Z,19.03
2018-04-07T18:14:26.112Z,19.01
2018-04-07T18:16:53.645Z,18.93
2018-04-07T18:19:21.203Z,18.85
2018-04-07T18:21:48.828Z,18.80
2018-04-07T18:24:16.355Z,18.73
2018-04-07T18:26:43.880Z,18.66
2018-04-07T18:29:11.406Z,18.59
2018-04-07T18:31:39.325Z,18.51
2018-04-07T18:34:06.938Z,18.46
2018-04-07T18:36:34.478Z,18.40
2018-04-07T18:39:02.021Z,18.34
2018-04-07T18:41:29.573Z,18.25
2018-04-07T18:43:57.272Z,18.23
2018-04-07T18:46:24.870Z,18.19
2018-04-07T18:48:52.381Z,18.19
2018-04-07T18:51:20.967Z,18.09
2018-04-07T18:53:48.537Z,18.01
2018-04-07T18:56:16.057Z,17.97
2018-04-07T18:58:43.598Z,17.93
2018-04-07T19:01:11.166Z,17.93
2018-04-07T19:03:38.706Z,17.85
2018-04-07T19:06:06.349Z,17.85
2018-04-07T19:08:33.865Z,17.81
2018-04-07T19:11:01.413Z,17.76
2018-04-07T19:13:29.022Z,17.73
2018-04-07T19:15:56.561Z,17.76
2018-04-07T19:18:24.073Z,17.69
2018-04-07T19:20:51.606Z,17.69
2018-04-07T19:23:19.861Z,17.70
2018-04-07T19:25:47.390Z,17.64
2018-04-07T19:28:14.956Z,17.67
2018-04-07T19:30:42.498Z,17.62
2018-04-07T19:33:10.057Z,17.61
2018-04-07T19:35:37.595Z,17.59
2018-04-07T19:38:05.133Z,17.55
2018-04-07T19:40:33.057Z,17.52
2018-04-07T19:43:00.584Z,17.45
2018-04-07T19:45:28.121Z,17.37
2018-04-07T19:47:55.650Z,17.32
2018-04-07T19:50:23.174Z,17.26
2018-04-07T19:52:50.701Z,17.24
2018-04-07T19:55:18.258Z,17.20
2018-04-07T19:57:45.819Z,17.13
2018-04-07T20:00:13.351Z,17.08
2018-04-07T20:02:40.889Z,17.05
2018-04-07T20:05:08.473Z,16.97
2018-04-07T20:07:36.005Z,16.97
2018-04-07T20:10:03.620Z,16.89
2018-04-07T20:12:31.225Z,16.83
2018-04-07T20:14:58.765Z,16.77
2018-04-07T20:17:26.298Z,16.72
2018-04-07T20:19:53.825Z,16.63
2018-04-07T20:22:21.725Z,16.59
2018-04-07T20:24:49.248Z,16.55
2018-04-07T20:27:16.769Z,16.43
2018-04-07T20:29:44.302Z,16.42
2018-04-07T20:32:12.070Z,16.36
2018-04-07T20:34:39.665Z,16.34
2018-04-07T20:37:07.187Z,16.28
2018-04-07T20:39:34.717Z,16.23
2018-04-07T20:42:14.115Z,16.18
2018-04-07T20:44:41.644Z,16.15
2018-04-07T20:47:09.171Z,16.08
2018-04-07T20:49:36.728Z,16.02
2018-04-07T20:52:04.377Z,15.97
2018-04-07T20:54:31.984Z,15.93
2018-04-07T20:56:59.541Z,15.86
2018-04-07T20:59:27.108Z,15.82
2018-04-07T21:01:54.644Z,15.78
2018-04-07T21:04:22.296Z,15.73
2018-04-07T21:06:49.825Z,15.66
2018-04-07T21:09:17.352Z,15.62
2018-04-07T21:11:44.892Z,15.60
2018-04-07T21:14:12.429Z,15.55
2018-04-07T21:16:40.013Z,15.50
2018-04-07T21:19:07.545Z,15.48
2018-04-07T21:21:35.086Z,15.43
2018-04-07T21:24:02.809Z,15.37
2018-04-07T21:26:34.107Z,15.33
2018-04-07T21:29:01.643Z,15.31
2018-04-07T21:31:29.273Z,15.26
2018-04-07T21:33:56.826Z,15.25
2018-04-07T21:36:24.386Z,15.21
2018-04-07T21:38:51.939Z,15.19
2018-04-07T21:41:19.505Z,15.19
2018-04-07T21:43:47.037Z,15.15
2018-04-07T21:46:14.622Z,15.15
2018-04-07T21:48:42.207Z,15.08
2018-04-07T21:51:09.794Z,15.03
2018-04-07T21:53:37.330Z,15.03
2018-04-07T21:56:04.862Z,14.97
2018-04-07T21:58:32.439Z,14.93
2018-04-07T22:00:59.985Z,14.91
2018-04-07T22:03:27.530Z,14.92
2018-04-07T22:05:55.322Z,14.87
2018-04-07T22:08:22.894Z,14.90
2018-04-07T22:10:50.477Z,14.89
2018-04-07T22:13:18.173Z,14.85
2018-04-07T22:15:45.793Z,14.83
2018-04-07T22:18:13.375Z,14.78
2018-04-07T22:20:40.978Z,14.79
2018-04-07T22:23:08.533Z,14.78
2018-04-07T22:25:36.079Z,14.76
2018-04-07T22:28:03.660Z,14.76
2018-04-07T22:30:31.187Z,14.75
2018-04-07T22:32:58.753Z,14.68
2018-04-07T22:35:26.318Z,14.68
2018-04-07T22:37:53.904Z,14.65
2018-04-07T22:40:21.506Z,14.62
2018-04-07T22:42:49.076Z,14.55
2018-04-07T22:45:16.617Z,14.54
2018-04-07T22:47:44.158Z,14.56
2018-04-07T22:50:11.726Z,14.57
2018-04-07T22:52:39.282Z,14.58
2018-04-07T22:55:06.796Z,14.59
2018-04-07T22:57:34.326Z,14.60
2018-04-07T23:00:01.857Z,14.64
2018-04-07T23:02:29.386Z,14.65
2018-04-07T23:04:56.914Z,14.66
2018-04-07T23:07:24.455Z,14.65
2018-04-07T23:09:51.996Z,14.66
2018-04-07T23:12:19.523Z,14.64
2018-04-07T23:14:47.045Z,14.60
2018-04-07T23:17:14.577Z,14.60
2018-04-07T23:19:42.102Z,14.55
2018-04-07T23:22:09.621Z,14.57
2018-04-07T23:24:37.150Z,14.52
2018-04-07T23:27:04.709Z,14.49
2018-04-07T23:29:32.244Z,14.48
2018-04-07T23:31:59.771Z,14.47
2018-04-07T23:34:27.292Z,14.44
2018-04-07T23:36:54.889Z,14.40
2018-04-07T23:39:22.408Z,14.38
2018-04-07T23:41:50.008Z,14.36
2018-04-07T23:44:17.539Z,14.33
2018-04-07T23:46:45.069Z,14.30
2018-04-07T23:49:12.650Z,14.31
2018-04-07T23:51:40.213Z,14.27
2018-04-07T23:54:07.729Z,14.25
2018-04-07T23:56:35.268Z,14.23
2018-04-07T23:59:02.791Z,14.21
